Time;durP1;ratioP1;P1;durP2;ratioP2;P2;SDS_P1;SDS_P2;PMS_P1;PMS_P2;Temp;Humidity;BMP_temperature;BMP_pressure;BME280_temperature;BME280_humidity;BME280_pressure;Samples;Min_cycle;Max_cycle;Signal;HPM_P1;HPM_P2
2023/01/22 00:02:23;;;;;;;10.77;5.38;;;;;;;18.08;40.63;103238.81;5062189;28;20182;-75
2023/01/22 00:04:48;;;;;;;8.10;5.25;;;;;;;18.07;40.58;103237.09;5054692;28;20134;-74
2023/01/22 00:07:16;;;;;;;8.07;5.32;;;;;;;18.05;40.56;103241.56;5054885;28;20504;-77
2023/01/22 00:09:42;;;;;;;8.40;5.75;;;;;;;17.99;40.70;103233.94;5055352;28;20465;-76
2023/01/22 00:12:08;;;;;;;11.55;5.13;;;;;;;18.00;40.39;103240.06;5054592;28;20051;-73
2023/01/22 00:14:33;;;;;;;8.02;5.30;;;;;;;18.00;40.56;103246.19;5054096;28;20065;-75
2023/01/22 00:16:59;;;;;;;7.63;4.90;;;;;;;18.02;40.93;103248.78;5054797;28;20626;-74
2023/01/22 00:19:24;;;;;;;8.05;5.10;;;;;;;18.00;40.39;103254.13;5054569;28;20549;-74
2023/01/22 00:21:50;;;;;;;9.30;5.30;;;;;;;17.98;40.53;103248.06;5054334;28;20036;-74
2023/01/22 00:24:15;;;;;;;9.38;5.65;;;;;;;17.94;40.34;103239.41;5060158;28;20394;-74
2023/01/22 00:26:41;;;;;;;8.35;4.93;;;;;;;17.95;40.63;103246.38;5054194;28;20075;-73
2023/01/22 00:29:06;;;;;;;9.13;5.47;;;;;;;17.95;40.48;103240.25;5054243;28;20048;-75
2023/01/22 00:31:31;;;;;;;7.78;5.03;;;;;;;17.90;40.46;103234.34;5054869;28;20078;-77
2023/01/22 00:33:57;;;;;;;7.60;5.13;;;;;;;17.93;40.39;103234.22;5061219;28;20068;-76
2023/01/22 00:36:22;;;;;;;8.75;5.28;;;;;;;17.93;40.54;103236.84;5054890;28;20123;-74
2023/01/22 00:38:48;;;;;;;9.60;5.03;;;;;;;17.91;40.54;103236.91;5053865;28;20173;-74
2023/01/22 00:41:15;;;;;;;7.78;5.28;;;;;;;17.91;40.60;103230.75;5053251;28;20033;-74
2023/01/22 00:43:41;;;;;;;8.27;5.35;;;;;;;17.90;40.46;103229.06;5053691;28;20546;-73
2023/01/22 00:46:08;;;;;;;10.40;5.50;;;;;;;17.88;40.60;103225.59;5053833;28;20033;-73
2023/01/22 00:48:34;;;;;;;7.82;5.20;;;;;;;17.84;40.56;103227.50;5053965;28;20036;-73
2023/01/22 00:50:59;;;;;;;9.20;5.13;;;;;;;17.85;40.49;103225.69;5054494;28;20071;-73
2023/01/22 00:53:24;;;;;;;7.20;4.88;;;;;;;17.85;40.55;103225.69;5070054;28;20397;-73
2023/01/22 00:55:52;;;;;;;8.18;5.45;;;;;;;17.81;40.48;103227.63;5053840;28;20087;-73
2023/01/22 00:58:18;;;;;;;7.30;4.80;;;;;;;17.82;40.55;103231.13;5054035;28;21159;-75
2023/01/22 01:00:43;;;;;;;8.30;5.63;;;;;;;17.79;40.53;103218.94;5054734;28;20028;-74
2023/01/22 01:03:26;;;;;;;9.00;5.15;;;;;;;17.78;40.52;103214.56;5053667;28;20032;-72
2023/01/22 01:06:01;;;;;;;7.78;5.05;;;;;;;17.79;40.39;103218.94;5053196;28;20885;-74
2023/01/22 01:08:28;;;;;;;9.75;5.10;;;;;;;17.74;40.32;103208.56;5053997;28;20112;-75
2023/01/22 01:10:55;;;;;;;8.02;4.88;;;;;;;17.78;40.52;103209.28;5052874;28;20086;-73
2023/01/22 01:13:21;;;;;;;7.93;5.07;;;;;;;17.79;40.08;103210.16;5052769;28;20123;-76
2023/01/22 01:15:46;;;;;;;8.38;5.13;;;;;;;17.77;40.46;103207.59;5053063;28;20107;-73
2023/01/22 01:18:13;;;;;;;9.25;4.95;;;;;;;17.75;40.31;103205.03;5054104;28;20383;-73
2023/01/22 01:20:39;;;;;;;7.55;4.93;;;;;;;17.74;40.61;103202.44;5053363;28;20055;-76
2023/01/22 01:23:04;;;;;;;8.80;5.50;;;;;;;17.73;40.44;103208.63;5053084;28;20029;-73
2023/01/22 01:25:29;;;;;;;7.50;4.90;;;;;;;17.69;40.55;103199.13;5053627;28;20812;-74
2023/01/22 01:27:55;;;;;;;7.43;5.05;;;;;;;17.69;40.36;103191.22;5052606;28;20045;-73
2023/01/22 01:30:20;;;;;;;8.98;4.72;;;;;;;17.68;40.49;103202.69;5053087;28;20050;-75
2023/01/22 01:32:45;;;;;;;7.75;4.80;;;;;;;17.59;40.83;103190.75;5053297;28;20044;-73
2023/01/22 01:35:10;;;;;;;8.00;4.88;;;;;;;17.68;40.08;103208.81;5053246;28;20090;-73
2023/01/22 01:37:36;;;;;;;8.52;4.45;;;;;;;17.64;40.10;103190.56;5053210;28;20079;-74
2023/01/22 01:40:01;;;;;;;8.05;4.78;;;;;;;17.68;40.45;103190.34;5052621;28;20465;-72
2023/01/22 01:42:32;;;;;;;7.10;4.35;;;;;;;17.66;40.29;103186.09;5052912;28;20028;-76
2023/01/22 01:45:23;;;;;;;7.30;4.55;;;;;;;17.65;40.37;103177.31;5052026;28;20525;-76
2023/01/22 01:47:57;;;;;;;6.85;4.70;;;;;;;17.66;40.50;103176.41;5052906;28;20068;-75
2023/01/22 01:50:25;;;;;;;8.55;4.60;;;;;;;17.65;40.30;103171.19;5052716;28;20033;-73
2023/01/22 01:52:50;;;;;;;7.25;4.60;;;;;;;17.64;40.37;103166.81;5051887;28;20109;-73
2023/01/22 01:55:20;;;;;;;7.03;4.50;;;;;;;17.61;40.42;103159.91;5052841;28;20040;-72
2023/01/22 01:57:46;;;;;;;6.57;4.13;;;;;;;17.57;40.46;103153.88;5051754;28;20396;-76
2023/01/22 02:00:13;;;;;;;7.30;4.75;;;;;;;17.54;40.37;103156.66;5051846;28;20036;-74
2023/01/22 02:02:40;;;;;;;6.57;4.25;;;;;;;17.59;39.99;103161.75;5053088;28;20033;-74
2023/01/22 02:05:08;;;;;;;7.15;3.95;;;;;;;17.57;40.42;103153.03;5052211;28;20042;-73
2023/01/22 02:07:33;;;;;;;6.50;4.93;;;;;;;17.54;40.30;103154.03;5051766;28;20064;-74
2023/01/22 02:09:59;;;;;;;6.88;4.20;;;;;;;17.58;40.04;103162.69;5052026;28;20062;-73
2023/01/22 02:12:24;;;;;;;6.43;4.93;;;;;;;17.58;40.01;103160.03;5052576;28;20037;-72
2023/01/22 02:14:50;;;;;;;6.78;4.40;;;;;;;17.56;40.17;103164.50;5052408;28;20103;-75
2023/01/22 02:17:19;;;;;;;7.95;4.32;;;;;;;17.56;40.17;103164.50;5051490;28;20338;-73
2023/01/22 02:19:45;;;;;;;7.25;4.28;;;;;;;17.50;40.50;103151.56;5052152;28;20176;-72
2023/01/22 02:22:19;;;;;;;7.82;4.00;;;;;;;17.47;40.13;103136.75;5052834;28;20884;-72
2023/01/22 02:24:44;;;;;;;9.93;4.47;;;;;;;17.53;40.11;103141.78;5052654;28;20036;-73
2023/01/22 02:27:10;;;;;;;8.70;4.45;;;;;;;17.50;40.03;103136.63;5053047;28;20443;-72
2023/01/22 02:29:36;;;;;;;9.23;4.30;;;;;;;17.52;40.06;103144.47;5052693;28;20082;-77
2023/01/22 02:32:01;;;;;;;6.70;4.18;;;;;;;17.49;39.91;103140.19;5052449;28;20041;-74
2023/01/22 02:34:27;;;;;;;8.30;4.50;;;;;;;17.46;40.10;103137.69;5052403;28;20112;-76
2023/01/22 02:36:52;;;;;;;7.05;4.35;;;;;;;17.50;40.16;103149.81;5053038;28;20025;-75
2023/01/22 02:39:18;;;;;;;6.90;4.00;;;;;;;17.48;40.24;103146.41;5051840;28;20119;-72
2023/01/22 02:41:44;;;;;;;6.30;3.80;;;;;;;17.49;40.18;103155.16;5050219;28;20028;-72
2023/01/22 02:44:09;;;;;;;7.18;4.20;;;;;;;17.44;39.87;103146.59;5051881;28;20060;-74
2023/01/22 02:46:34;;;;;;;5.75;3.88;;;;;;;17.45;39.99;103150.91;5051332;28;20033;-74
2023/01/22 02:49:00;;;;;;;6.72;3.80;;;;;;;17.44;40.15;103142.16;5051713;28;20043;-77
2023/01/22 02:51:26;;;;;;;6.88;3.92;;;;;;;17.46;39.99;103145.59;5051671;28;20083;-72
2023/01/22 02:53:52;;;;;;;8.18;3.97;;;;;;;17.48;39.98;103137.63;5051272;28;20029;-73
2023/01/22 02:56:18;;;;;;;7.00;3.72;;;;;;;17.45;39.99;103148.28;5050580;28;20077;-74
2023/01/22 02:58:43;;;;;;;6.97;4.10;;;;;;;17.47;40.00;103151.72;5051548;28;20033;-73
2023/01/22 03:01:19;;;;;;;7.10;3.80;;;;;;;17.47;40.05;103147.31;5051609;28;20434;-75
2023/01/22 03:03:54;;;;;;;6.32;3.80;;;;;;;17.44;40.43;103152.72;5051589;28;20047;-73
2023/01/22 03:06:22;;;;;;;8.15;3.85;;;;;;;17.45;40.48;103154.44;5051283;28;20041;-73
2023/01/22 03:08:51;;;;;;;6.35;3.78;;;;;;;17.47;40.52;103149.09;5057084;28;20396;-72
2023/01/22 03:11:16;;;;;;;7.10;3.67;;;;;;;17.41;40.58;103129.09;5051687;28;20112;-73
2023/01/22 03:21:53;;;;;;;5.88;3.63;;;;;;;17.44;40.77;103141.31;5050678;28;20076;-72
2023/01/22 03:24:19;;;;;;;7.00;3.20;;;;;;;17.49;41.22;103144.63;5051942;28;20052;-73
2023/01/22 03:26:44;;;;;;;6.15;2.92;;;;;;;17.49;40.89;103136.69;5050993;28;20115;-73
2023/01/22 03:29:09;;;;;;;6.88;3.00;;;;;;;17.48;41.40;103130.59;5056990;28;20036;-73
2023/01/22 03:31:34;;;;;;;7.45;3.42;;;;;;;17.49;41.05;103134.91;5050888;28;20029;-73
2023/01/22 03:34:00;;;;;;;6.78;2.92;;;;;;;17.50;41.40;103138.41;5051534;28;20428;-73
2023/01/22 03:36:25;;;;;;;6.13;3.13;;;;;;;17.48;41.08;103127.94;5050210;28;20033;-77
2023/01/22 03:38:50;;;;;;;7.65;3.33;;;;;;;17.44;41.24;103123.72;5051333;28;20024;-73
2023/01/22 03:41:16;;;;;;;6.10;3.13;;;;;;;17.48;41.45;103122.66;5050686;28;20072;-74
2023/01/22 03:43:43;;;;;;;5.75;2.92;;;;;;;17.50;41.19;103119.94;5051193;28;20057;-73
2023/01/22 03:46:11;;;;;;;6.53;3.13;;;;;;;17.40;41.24;103096.63;5050839;28;20671;-77
2023/01/22 03:48:37;;;;;;;5.13;3.10;;;;;;;17.52;41.49;103116.31;5051159;28;20024;-72
2023/01/22 03:51:10;;;;;;;9.77;3.70;;;;;;;17.51;40.93;103108.47;5049605;28;20040;-73
2023/01/22 03:53:36;;;;;;;8.02;3.42;;;;;;;17.48;41.30;103104.22;5050678;28;20067;-73
2023/01/22 03:56:05;;;;;;;7.25;3.22;;;;;;;17.48;41.08;103109.50;5050707;28;20076;-72
2023/01/22 03:58:31;;;;;;;5.88;2.95;;;;;;;17.52;41.20;103113.69;5050642;28;20045;-72
2023/01/22 04:01:00;;;;;;;5.72;2.90;;;;;;;17.52;41.20;103115.47;5049894;28;20040;-73
2023/01/22 04:03:27;;;;;;;5.82;2.78;;;;;;;17.51;41.56;103111.97;5049676;28;20094;-73
2023/01/22 04:05:53;;;;;;;8.77;3.72;;;;;;;17.53;41.49;103112.78;5048676;28;20066;-72
2023/01/22 04:08:20;;;;;;;7.10;3.17;;;;;;;17.48;41.19;103117.41;5050916;28;20030;-72
2023/01/22 04:10:45;;;;;;;6.68;3.03;;;;;;;17.49;41.11;103111.19;5047868;28;20083;-75
2023/01/22 04:13:11;;;;;;;6.00;3.63;;;;;;;17.43;41.16;103108.81;5049033;28;20029;-73
2023/01/22 04:15:36;;;;;;;7.00;3.00;;;;;;;17.52;40.99;103121.59;5048130;28;20128;-72
2023/01/22 04:18:01;;;;;;;6.65;2.83;;;;;;;17.50;41.17;103112.03;5049957;28;20029;-73
2023/01/22 04:20:27;;;;;;;7.25;2.85;;;;;;;17.54;40.80;103117.09;5049369;28;20424;-75
2023/01/22 04:22:52;;;;;;;8.88;3.58;;;;;;;17.53;41.13;103117.19;5053432;28;20029;-75
2023/01/22 04:25:17;;;;;;;7.43;3.40;;;;;;;17.52;40.97;103113.69;5053889;28;20024;-74
2023/01/22 04:27:44;;;;;;;7.45;2.90;;;;;;;17.52;40.99;103113.69;5054046;28;20032;-74
2023/01/22 04:30:10;;;;;;;8.57;3.38;;;;;;;17.52;41.15;103112.84;5052743;28;20021;-72
2023/01/22 04:32:35;;;;;;;6.07;3.03;;;;;;;17.46;41.25;103102.56;5053991;28;20072;-73
2023/01/22 04:35:02;;;;;;;5.57;2.85;;;;;;;17.49;41.31;103110.34;5053324;28;20459;-74
2023/01/22 04:37:28;;;;;;;5.75;2.90;;;;;;;17.50;41.30;103115.53;5053703;28;20035;-72
2023/01/22 04:39:53;;;;;;;6.35;2.78;;;;;;;17.54;41.24;103108.34;5053385;28;20028;-75
2023/01/22 04:42:18;;;;;;;5.47;2.83;;;;;;;17.48;40.99;103106.84;5066163;28;20043;-75
2023/01/22 04:44:44;;;;;;;7.82;3.03;;;;;;;17.49;41.44;103105.06;5051120;28;20497;-74
2023/01/22 04:47:09;;;;;;;6.38;2.92;;;;;;;17.51;41.50;103111.13;5053184;28;20054;-75
2023/01/22 04:49:34;;;;;;;5.68;2.65;;;;;;;17.51;41.45;103103.22;5057355;28;20116;-73
2023/01/22 04:51:59;;;;;;;6.85;2.90;;;;;;;17.52;41.65;103108.41;5050352;28;20110;-73
2023/01/22 04:54:25;;;;;;;6.28;2.85;;;;;;;17.52;41.57;103108.41;5052958;28;20056;-74
2023/01/22 04:56:51;;;;;;;8.07;3.10;;;;;;;17.50;41.52;103098.84;5051758;28;20040;-72
2023/01/22 04:59:16;;;;;;;6.75;2.78;;;;;;;17.53;41.61;103104.00;5052828;28;20265;-72
2023/01/22 05:01:43;;;;;;;5.45;2.90;;;;;;;17.53;41.29;103098.72;5051699;28;20043;-73
2023/01/22 05:04:08;;;;;;;5.72;2.90;;;;;;;17.51;41.51;103105.84;5057825;28;20029;-72
2023/01/22 05:06:33;;;;;;;5.32;2.55;;;;;;;17.50;41.60;103102.38;5051273;28;20028;-74
2023/01/22 05:08:59;;;;;;;7.40;3.00;;;;;;;17.48;41.32;103098.06;5050519;28;20124;-74
2023/01/22 05:11:26;;;;;;;5.97;2.78;;;;;;;17.49;41.61;103100.63;5052075;28;20472;-73
2023/01/22 05:13:53;;;;;;;8.85;2.83;;;;;;;17.49;42.06;103108.53;5051481;28;20032;-74
2023/01/22 05:16:18;;;;;;;5.90;2.60;;;;;;;17.45;42.04;103093.81;5051526;28;20033;-75
2023/01/22 05:18:44;;;;;;;6.88;3.15;;;;;;;17.50;41.99;103106.75;5050688;28;20044;-77
2023/01/22 05:21:09;;;;;;;6.25;2.45;;;;;;;17.47;41.94;103099.84;5050757;28;20029;-75
2023/01/22 05:23:34;;;;;;;6.90;2.75;;;;;;;17.46;41.72;103098.13;5051713;28;20036;-74
2023/01/22 05:26:00;;;;;;;6.30;2.60;;;;;;;17.51;41.84;103111.97;5051149;28;20091;-72
2023/01/22 05:28:25;;;;;;;5.88;2.58;;;;;;;17.48;42.00;103114.75;5051620;28;20045;-72
2023/01/22 05:30:50;;;;;;;5.22;2.60;;;;;;;17.48;41.87;103112.13;5051182;28;20046;-74
2023/01/22 05:33:15;;;;;;;4.97;2.15;;;;;;;17.47;41.82;103115.69;5050550;28;20029;-73
2023/01/22 05:35:41;;;;;;;4.55;2.10;;;;;;;17.54;41.08;103124.16;5052112;28;20031;-74
2023/01/22 05:38:06;;;;;;;4.68;2.00;;;;;;;17.58;40.61;103126.63;5051791;28;20042;-75
2023/01/22 05:40:31;;;;;;;4.93;1.70;;;;;;;17.64;40.42;103122.88;5051751;28;20116;-76
2023/01/22 05:42:56;;;;;;;4.82;2.03;;;;;;;17.66;40.36;103125.44;5050296;28;20024;-75
2023/01/22 05:45:22;;;;;;;3.45;1.70;;;;;;;17.72;40.09;103118.13;5051068;28;20056;-73
2023/01/22 05:47:52;;;;;;;4.28;2.00;;;;;;;17.75;40.16;103125.91;5051293;28;20103;-72
2023/01/22 05:50:18;;;;;;;3.65;1.50;;;;;;;17.78;39.78;103122.25;5052040;28;20036;-73
2023/01/22 05:52:43;;;;;;;4.40;1.50;;;;;;;17.83;39.76;103122.94;5050485;28;21079;-73
2023/01/22 05:55:08;;;;;;;3.80;1.48;;;;;;;17.89;39.93;103135.84;5050177;28;20036;-74
2023/01/22 05:57:34;;;;;;;3.30;1.50;;;;;;;17.87;39.81;103131.56;5056199;28;20432;-75
2023/01/22 06:00:00;;;;;;;3.88;1.70;;;;;;;17.90;39.61;103137.56;5066602;28;20036;-73
2023/01/22 06:02:25;;;;;;;3.97;1.45;;;;;;;17.94;39.80;103133.88;5048271;28;20086;-79
2023/01/22 06:04:50;;;;;;;3.00;1.40;;;;;;;17.95;39.75;103138.22;5050017;28;20041;-74
2023/01/22 06:07:16;;;;;;;4.38;1.45;;;;;;;18.01;39.80;103138.88;5049072;28;20041;-74
2023/01/22 06:09:41;;;;;;;5.38;1.75;;;;;;;18.01;40.02;103138.88;5051322;28;20135;-77
2023/01/22 06:12:06;;;;;;;4.45;1.58;;;;;;;18.05;39.88;103143.94;5050072;28;20028;-74
2023/01/22 06:14:32;;;;;;;3.60;1.30;;;;;;;18.04;39.67;103136.09;5052230;28;20102;-74
2023/01/22 06:16:57;;;;;;;4.80;1.70;;;;;;;18.05;40.08;103122.84;5048519;28;20041;-74
2023/01/22 06:19:22;;;;;;;4.35;1.80;;;;;;;18.08;39.69;103135.88;5052301;28;20025;-73
2023/01/22 06:21:47;;;;;;;5.20;1.65;;;;;;;18.08;39.74;103130.59;5052495;28;20543;-73
2023/01/22 06:24:13;;;;;;;3.72;1.67;;;;;;;18.06;39.88;103127.19;5052033;28;20063;-73
2023/01/22 06:26:38;;;;;;;3.53;1.60;;;;;;;18.10;39.51;103136.69;5051691;28;20060;-73
2023/01/22 06:29:04;;;;;;;4.90;1.67;;;;;;;18.05;39.83;103127.25;5051197;28;20089;-74
2023/01/22 06:31:30;;;;;;;3.30;1.60;;;;;;;18.12;39.66;103139.28;5050859;28;20064;-74
2023/01/22 06:33:55;;;;;;;4.35;1.65;;;;;;;18.13;39.71;103146.25;5052440;28;20143;-74
2023/01/22 06:36:21;;;;;;;5.05;1.80;;;;;;;18.11;39.87;103142.81;5052638;28;20163;-72
2023/01/22 06:38:46;;;;;;;4.93;1.40;;;;;;;18.13;39.73;103140.97;5056774;28;20032;-73
2023/01/22 06:41:11;;;;;;;4.57;1.58;;;;;;;18.10;39.62;103133.19;5065752;28;20043;-71
2023/01/22 06:43:36;;;;;;;3.42;1.45;;;;;;;18.13;39.64;103133.94;5058746;28;20049;-71
2023/01/22 06:46:02;;;;;;;4.47;1.70;;;;;;;18.12;39.91;103131.34;5051907;28;20059;-71
2023/01/22 06:48:27;;;;;;;3.70;1.50;;;;;;;18.10;39.92;103136.69;5055221;28;20032;-71
2023/01/22 06:50:57;;;;;;;4.28;1.65;;;;;;;18.07;39.72;103131.56;5050412;28;20048;-72
2023/01/22 06:53:23;;;;;;;3.95;1.60;;;;;;;18.11;39.54;103143.66;5052635;28;20044;-75
2023/01/22 06:55:48;;;;;;;3.33;1.50;;;;;;;18.13;39.97;103140.97;5056721;28;20036;-74
2023/01/22 06:58:13;;;;;;;5.22;1.60;;;;;;;18.13;39.59;103149.75;5051293;28;21066;-71
2023/01/22 07:00:39;;;;;;;4.80;1.45;;;;;;;18.10;39.75;103152.53;5050694;28;20082;-73
2023/01/22 07:03:05;;;;;;;4.43;1.50;;;;;;;18.07;39.86;103147.38;5051078;28;20033;-72
2023/01/22 07:05:31;;;;;;;5.30;1.70;;;;;;;18.12;39.77;103150.66;5051389;28;20040;-72
2023/01/22 07:07:56;;;;;;;5.25;2.50;;;;;;;18.12;39.66;103148.03;5067292;28;20055;-72
2023/01/22 07:10:21;;;;;;;4.38;1.55;;;;;;;18.06;39.66;103139.53;5052055;28;20028;-73
2023/01/22 07:12:48;;;;;;;3.85;1.30;;;;;;;18.12;39.80;103155.94;5052540;28;20028;-71
2023/01/22 07:15:13;;;;;;;4.05;1.45;;;;;;;18.09;39.78;103153.44;5051970;28;20032;-71
2023/01/22 07:17:39;;;;;;;4.28;1.50;;;;;;;18.14;39.82;103161.16;5052092;28;20047;-72
2023/01/22 07:20:04;;;;;;;5.97;1.95;;;;;;;18.09;39.87;103152.59;5052921;28;20533;-70
2023/01/22 07:22:31;;;;;;;4.20;1.40;;;;;;;18.13;39.88;103160.31;5052165;28;20036;-72
2023/01/22 07:24:56;;;;;;;5.20;2.28;;;;;;;18.14;39.71;103155.88;5051942;28;20029;-70
2023/01/22 07:27:21;;;;;;;5.75;1.70;;;;;;;18.12;39.81;103145.41;5051320;28;20254;-72
2023/01/22 07:29:48;;;;;;;5.07;1.88;;;;;;;18.12;39.74;103145.41;5050224;28;20032;-75
2023/01/22 07:32:14;;;;;;;3.08;1.48;;;;;;;18.11;39.99;103148.94;5051375;28;20040;-72
2023/01/22 07:34:39;;;;;;;3.75;1.40;;;;;;;18.15;39.85;103154.97;5052306;28;20029;-74
2023/01/22 07:37:04;;;;;;;4.00;1.40;;;;;;;18.16;39.96;103153.19;5049291;28;20485;-70
2023/01/22 07:39:30;;;;;;;5.10;1.63;;;;;;;18.15;39.94;103149.69;5051681;28;20292;-72
2023/01/22 07:41:59;;;;;;;4.18;1.50;;;;;;;18.16;39.59;103154.03;5051537;28;20274;-72
2023/01/22 07:44:25;;;;;;;4.93;1.83;;;;;;;18.18;39.87;103160.06;5050614;28;20299;-70
2023/01/22 07:46:50;;;;;;;3.30;1.48;;;;;;;18.15;39.89;103154.97;5050607;28;20044;-71
2023/01/22 07:49:16;;;;;;;5.45;1.38;;;;;;;18.19;39.76;103159.16;5057693;28;20029;-73
2023/01/22 07:51:41;;;;;;;4.07;1.50;;;;;;;18.19;39.84;103161.81;5051217;28;20784;-71
2023/01/22 07:54:06;;;;;;;2.67;1.30;;;;;;;18.16;39.92;103155.81;5051880;28;20032;-71
2023/01/22 07:56:31;;;;;;;4.47;1.58;;;;;;;18.17;39.91;103166.31;5053665;28;20214;-70
2023/01/22 07:58:57;;;;;;;5.78;1.60;;;;;;;18.17;39.70;103163.66;5054124;28;20388;-71
2023/01/22 08:01:22;;;;;;;2.95;1.27;;;;;;;18.18;39.91;103161.88;5053896;28;20037;-70
2023/01/22 08:03:47;;;;;;;5.22;1.40;;;;;;;18.21;39.86;103169.66;5054218;28;20060;-71
2023/01/22 08:06:16;;;;;;;4.15;1.48;;;;;;;18.19;39.73;103171.50;5054304;28;20024;-72
2023/01/22 08:08:42;;;;;;;5.50;1.45;;;;;;;18.19;39.78;103167.06;5054328;28;20044;-71
2023/01/22 08:11:08;;;;;;;3.55;1.50;;;;;;;18.17;39.71;103158.38;5053732;28;20048;-71
2023/01/22 08:13:33;;;;;;;3.60;1.50;;;;;;;18.16;39.67;103161.09;5054287;28;20091;-72
2023/01/22 08:15:59;;;;;;;3.88;1.40;;;;;;;18.21;39.74;103167.00;5053747;28;20033;-70
2023/01/22 08:18:24;;;;;;;4.07;1.40;;;;;;;18.18;39.71;103161.88;5054349;28;20033;-73
2023/01/22 08:20:50;;;;;;;4.70;1.60;;;;;;;18.21;40.13;103175.78;5054213;28;20045;-70
2023/01/22 08:23:15;;;;;;;4.60;1.48;;;;;;;18.20;39.74;103173.22;5054008;28;20059;-72
2023/01/22 08:25:40;;;;;;;3.92;1.30;;;;;;;18.20;39.60;103174.09;5053162;28;20389;-72
2023/01/22 08:28:06;;;;;;;3.33;1.33;;;;;;;18.22;39.69;103174.00;5053897;28;20035;-70
2023/01/22 08:30:33;;;;;;;4.35;1.42;;;;;;;18.25;39.91;103187.06;5053881;28;20028;-69
2023/01/22 08:32:59;;;;;;;4.93;2.00;;;;;;;18.25;39.71;103192.34;5053301;28;20037;-71
2023/01/22 08:35:24;;;;;;;3.40;1.45;;;;;;;18.24;39.72;103188.00;5053894;28;20052;-70
2023/01/22 08:37:50;;;;;;;2.83;1.27;;;;;;;18.21;40.03;103182.84;5053877;28;20051;-71
2023/01/22 08:40:15;;;;;;;4.78;1.60;;;;;;;18.23;40.07;103188.91;5053979;28;20052;-68
2023/01/22 08:42:41;;;;;;;2.85;1.35;;;;;;;18.25;40.28;103184.44;5052704;28;20528;-69
2023/01/22 08:45:07;;;;;;;5.18;1.50;;;;;;;18.24;40.44;103183.56;5052974;28;20053;-69
2023/01/22 08:47:32;;;;;;;3.10;1.17;;;;;;;18.25;40.42;103174.72;5053396;28;20127;-70
2023/01/22 08:49:58;;;;;;;3.63;1.50;;;;;;;18.32;40.71;103193.78;5053284;28;20116;-69
2023/01/22 08:52:23;;;;;;;4.30;1.65;;;;;;;18.33;40.43;103192.88;5053510;28;20064;-71
2023/01/22 08:54:48;;;;;;;5.30;1.60;;;;;;;18.33;40.60;103192.03;5053206;28;20062;-70
2023/01/22 08:57:14;;;;;;;6.53;1.52;;;;;;;18.34;41.08;103193.72;5053112;28;20033;-70
2023/01/22 08:59:39;;;;;;;3.67;1.40;;;;;;;18.36;40.60;103192.72;5053399;28;20036;-69
2023/01/22 09:02:05;;;;;;;5.07;1.55;;;;;;;18.37;40.97;103194.41;5068754;28;20032;-70
2023/01/22 09:04:30;;;;;;;7.40;1.85;;;;;;;18.30;40.59;103171.88;5053102;28;20431;-70
2023/01/22 09:06:56;;;;;;;4.50;1.38;;;;;;;18.37;40.92;103183.00;5052079;28;20036;-70
2023/01/22 09:09:21;;;;;;;4.70;1.58;;;;;;;18.38;40.91;103180.31;5052615;28;20032;-70
2023/01/22 09:11:47;;;;;;;5.10;1.50;;;;;;;18.39;40.96;103179.38;5053192;28;20077;-72
2023/01/22 09:14:13;;;;;;;5.10;1.65;;;;;;;18.43;41.36;103194.16;5052805;28;20059;-70
2023/01/22 09:16:38;;;;;;;4.93;1.60;;;;;;;18.42;41.43;103191.56;5052748;28;20041;-70
2023/01/22 09:19:05;;;;;;;4.68;1.70;;;;;;;18.40;41.28;103186.38;5053044;28;20121;-72
2023/01/22 09:21:32;;;;;;;3.03;1.30;;;;;;;18.41;41.22;103193.38;5053041;28;20044;-69
2023/01/22 09:23:58;;;;;;;3.95;1.50;;;;;;;18.40;41.46;103190.78;5053050;28;20385;-70
2023/01/22 09:26:23;;;;;;;3.38;1.50;;;;;;;18.42;41.30;103194.22;5052328;28;20048;-69
2023/01/22 09:28:48;;;;;;;5.60;1.60;;;;;;;18.43;41.58;103201.22;5052663;28;20567;-71
2023/01/22 09:31:14;;;;;;;5.90;1.88;;;;;;;18.40;41.37;103202.19;5052443;28;20041;-69
2023/01/22 09:33:39;;;;;;;6.05;1.50;;;;;;;18.43;41.49;103206.50;5052747;28;20040;-69
2023/01/22 09:36:10;;;;;;;4.78;1.58;;;;;;;18.38;41.37;103195.31;5052486;28;20067;-71
2023/01/22 09:38:36;;;;;;;6.43;1.52;;;;;;;18.42;41.41;103203.00;5049080;28;20032;-70
2023/01/22 09:41:06;;;;;;;4.82;1.55;;;;;;;18.41;41.75;103197.81;5051426;28;20484;-67
2023/01/22 09:43:36;;;;;;;6.78;1.60;;;;;;;18.46;42.00;103206.38;5050903;28;20060;-68
2023/01/22 09:46:07;;;;;;;6.22;1.60;;;;;;;18.43;42.31;103207.34;5052536;28;20032;-67
2023/01/22 09:48:39;;;;;;;4.57;1.65;;;;;;;18.44;42.38;103201.16;5051130;28;20084;-71
2023/01/22 09:51:05;;;;;;;4.30;1.40;;;;;;;18.48;42.31;103215.06;5051346;28;20059;-67
2023/01/22 09:53:32;;;;;;;3.55;1.38;;;;;;;18.48;42.46;103204.50;5051454;28;20037;-68
2023/01/22 09:55:59;;;;;;;4.95;1.98;;;;;;;18.50;42.26;103213.22;5051171;28;20047;-75
2023/01/22 09:58:25;;;;;;;5.35;1.55;;;;;;;18.49;42.37;103203.59;5051631;28;20033;-70
2023/01/22 10:00:56;;;;;;;6.03;1.50;;;;;;;18.58;41.36;103207.56;5058268;28;20036;-69
2023/01/22 10:03:31;;;;;;;5.53;1.65;;;;;;;18.58;41.73;103203.16;5051047;28;20727;-67
2023/01/22 10:05:58;;;;;;;;;;;;;;;18.66;41.82;103208.94;5051258;28;20095;-68
2023/01/22 10:08:30;;;;;;;3.83;1.50;;;;;;;18.63;41.87;103217.00;5051345;28;19927;-71
2023/01/22 10:10:57;;;;;;;3.95;1.50;;;;;;;18.59;42.23;103206.66;5051402;28;20088;-69
2023/01/22 10:13:32;;;;;;;7.00;1.63;;;;;;;18.59;42.04;103210.16;5049985;28;20033;-69
2023/01/22 10:15:57;;;;;;;5.03;1.70;;;;;;;18.58;42.15;103216.38;5050360;28;20037;-70
2023/01/22 10:18:33;;;;;;;6.72;1.42;;;;;;;18.58;42.27;103216.38;5051236;28;20502;-72
2023/01/22 10:21:03;;;;;;;5.72;1.67;;;;;;;18.46;42.25;103195.81;5051790;28;20908;-69
2023/01/22 10:23:30;;;;;;;5.38;1.63;;;;;;;18.57;41.59;103219.09;5050461;28;20112;-69
2023/01/22 10:26:10;;;;;;;5.88;1.85;;;;;;;18.54;41.82;103219.22;5050439;28;20036;-70
2023/01/22 10:28:35;;;;;;;6.88;1.50;;;;;;;18.62;42.22;103217.94;5051461;28;20455;-68
2023/01/22 10:31:01;;;;;;;4.43;1.48;;;;;;;18.63;42.04;103218.81;5057640;28;20465;-68
2023/01/22 10:33:27;;;;;;;5.47;1.40;;;;;;;18.62;41.99;103207.38;5052061;28;20048;-71
2023/01/22 10:35:55;;;;;;;5.30;1.60;;;;;;;18.61;42.21;103205.66;5050219;28;20036;-68
2023/01/22 10:38:28;;;;;;;4.38;1.30;;;;;;;18.57;42.26;103200.59;5050471;28;20033;-69
2023/01/22 10:41:00;;;;;;;4.45;1.52;;;;;;;18.62;42.48;103209.16;5050399;28;20067;-67
2023/01/22 10:43:37;;;;;;;3.63;1.60;;;;;;;18.56;42.39;103198.88;5057234;28;20063;-68
2023/01/22 10:46:19;;;;;;;4.80;1.40;;;;;;;18.63;42.55;103216.16;5050261;28;20507;-69
2023/01/22 10:48:56;;;;;;;5.18;1.45;;;;;;;18.60;42.28;103208.38;5050443;28;20044;-70
2023/01/22 10:51:33;;;;;;;3.55;1.45;;;;;;;18.61;41.66;103221.50;5050806;28;20144;-72
2023/01/22 10:53:59;;;;;;;4.70;1.83;;;;;;;18.58;41.14;103213.72;5050644;28;20032;-73
2023/01/22 10:56:39;;;;;;;6.43;1.67;;;;;;;18.59;41.72;103211.94;5050525;28;20044;-69
2023/01/22 10:59:18;;;;;;;3.97;1.45;;;;;;;18.63;41.94;103224.09;5049778;28;20029;-69
2023/01/22 11:01:47;;;;;;;4.28;1.40;;;;;;;18.58;42.17;103219.00;5050714;28;20495;-70
2023/01/22 11:04:18;;;;;;;6.05;1.30;;;;;;;18.63;42.05;103224.09;5050396;28;20032;-71
2023/01/22 11:06:48;;;;;;;4.78;1.50;;;;;;;18.63;42.22;103222.28;5049642;28;20036;-69
2023/01/22 11:09:19;;;;;;;7.13;1.60;;;;;;;18.63;42.24;103202.97;5050752;28;20032;-75
2023/01/22 11:12:10;;;;;;;4.80;1.60;;;;;;;18.60;42.38;103193.38;5051469;28;20134;-72
2023/01/22 11:14:37;;;;;;;4.75;1.40;;;;;;;18.60;42.28;103187.25;5050171;28;20044;-70
2023/01/22 11:17:19;;;;;;;4.80;1.50;;;;;;;18.62;42.48;103186.22;5050208;28;20536;-73
2023/01/22 11:19:53;;;;;;;5.05;1.60;;;;;;;18.63;42.41;103195.88;5050532;28;20033;-73
2023/01/22 11:22:26;;;;;;;6.50;1.50;;;;;;;18.64;42.18;103189.69;5050750;28;20032;-74
2023/01/22 11:24:51;;;;;;;3.65;1.20;;;;;;;18.64;42.06;103192.31;5051292;28;20040;-72
2023/01/22 11:27:26;;;;;;;3.33;1.20;;;;;;;18.70;42.05;103196.44;5050501;28;20980;-72
2023/01/22 11:30:01;;;;;;;5.72;1.50;;;;;;;18.70;41.60;103195.59;5050777;28;20037;-75
2023/01/22 11:32:41;;;;;;;16.17;2.20;;;;;;;18.68;41.56;103193.88;5059714;28;20036;-75